createdAt,value
2018-04-08T00:01:27.853Z,13.02
2018-04-08T00:03:55.333Z,11.07
2018-04-08T00:06:22.789Z,11.57
2018-04-08T00:08:50.250Z,12.37
2018-04-08T00:11:17.706Z,15.90
2018-04-08T00:13:45.181Z,24.87
2018-04-08T00:16:13.401Z,13.85
2018-04-08T00:18:40.868Z,9.68
2018-04-08T00:21:08.329Z,14.38
2018-04-08T00:23:35.801Z,14.40
2018-04-08T00:26:03.266Z,14.52
2018-04-08T00:28:30.724Z,15.98
2018-04-08T00:30:58.174Z,12.10
2018-04-08T00:33:25.640Z,24.33
2018-04-08T00:35:53.093Z,13.07
2018-04-08T00:38:20.557Z,16.85
2018-04-08T00:40:48.008Z,15.73
2018-04-08T00:43:16.274Z,11.30
2018-04-08T00:45:43.734Z,14.13
2018-04-08T00:48:11.197Z,15.52
2018-04-08T00:50:38.649Z,13.20
2018-04-08T00:53:06.125Z,14.75
2018-04-08T00:55:34.373Z,13.30
2018-04-08T00:58:01.833Z,11.38
2018-04-08T01:00:29.281Z,13.55
2018-04-08T01:02:56.740Z,11.85
2018-04-08T01:05:24.193Z,16.73
2018-04-08T01:07:51.649Z,11.48
2018-04-08T01:10:19.105Z,29.35
2018-04-08T01:12:46.565Z,12.43
2018-04-08T01:15:14.008Z,12.70
2018-04-08T01:17:41.484Z,12.65
2018-04-08T01:20:08.921Z,22.20
2018-04-08T01:22:36.389Z,10.38
2018-04-08T01:25:03.845Z,14.43
2018-04-08T01:27:31.303Z,12.98
2018-04-08T01:29:58.750Z,11.57
2018-04-08T01:32:26.221Z,12.85
2018-04-08T01:34:53.675Z,21.83
2018-04-08T01:37:21.123Z,14.48
2018-04-08T01:39:48.574Z,15.63
2018-04-08T01:42:16.030Z,14.32
2018-04-08T01:44:43.478Z,13.45
2018-04-08T01:47:10.933Z,17.37
2018-04-08T01:49:38.389Z,10.02
2018-04-08T01:52:05.828Z,19.27
2018-04-08T01:54:33.273Z,12.98
2018-04-08T01:57:01.491Z,22.77
2018-04-08T01:59:28.960Z,20.23
2018-04-08T02:01:56.416Z,11.80
2018-04-08T02:04:23.874Z,19.92
2018-04-08T02:06:51.330Z,12.00
2018-04-08T02:09:18.788Z,13.48
2018-04-08T02:11:46.238Z,16.10
2018-04-08T02:14:13.706Z,11.50
2018-04-08T02:16:41.185Z,13.95
2018-04-08T02:19:08.637Z,12.45
2018-04-08T02:21:36.081Z,15.85
2018-04-08T02:24:03.533Z,10.13
2018-04-08T02:26:30.978Z,10.73
2018-04-08T02:28:58.437Z,13.10
2018-04-08T02:31:25.889Z,12.00
2018-04-08T02:33:53.348Z,10.93
2018-04-08T02:36:20.793Z,22.00
2018-04-08T02:38:48.243Z,11.65
2018-04-08T02:41:15.695Z,12.00
2018-04-08T02:43:43.153Z,12.43
2018-04-08T02:46:10.610Z,11.73
2018-04-08T02:48:38.084Z,16.27
2018-04-08T02:51:05.537Z,12.63
2018-04-08T02:53:32.994Z,17.00
2018-04-08T02:56:00.429Z,19.20
2018-04-08T02:58:27.880Z,13.80
2018-04-08T03:00:55.326Z,16.42
2018-04-08T03:03:23.541Z,18.35
2018-04-08T03:05:50.998Z,15.07
2018-04-08T03:08:18.447Z,16.20
2018-04-08T03:10:45.896Z,20.40
2018-04-08T03:13:13.365Z,16.45
2018-04-08T03:15:40.834Z,14.90
2018-04-08T03:18:08.328Z,13.35
2018-04-08T03:20:35.767Z,13.25
2018-04-08T03:23:03.229Z,13.98
2018-04-08T03:25:30.673Z,17.90
2018-04-08T03:27:58.136Z,13.75
2018-04-08T03:30:25.573Z,7.75
2018-04-08T03:32:53.030Z,12.70
2018-04-08T03:35:20.488Z,14.40
2018-04-08T03:37:47.949Z,13.85
2018-04-08T03:40:15.401Z,11.10
2018-04-08T03:42:42.842Z,9.55
2018-04-08T03:45:10.305Z,9.00
2018-04-08T03:47:37.744Z,11.57
2018-04-08T03:50:05.183Z,9.90
2018-04-08T03:52:33.396Z,10.10
2018-04-08T03:55:00.854Z,15.07
2018-04-08T03:57:28.309Z,10.27
2018-04-08T03:59:55.768Z,9.43
2018-04-08T04:02:23.219Z,9.25
2018-04-08T04:04:50.675Z,7.68
2018-04-08T04:07:18.112Z,12.98
2018-04-08T04:09:45.556Z,9.10
2018-04-08T04:12:13.865Z,15.23
2018-04-08T04:14:41.325Z,11.80
2018-04-08T04:17:08.774Z,13.18
2018-04-08T04:19:48.156Z,7.78
2018-04-08T04:22:27.482Z,10.93
2018-04-08T04:25:06.753Z,7.72
2018-04-08T04:27:34.956Z,9.68
2018-04-08T04:30:02.421Z,8.02
2018-04-08T04:32:29.873Z,9.57
2018-04-08T04:34:57.332Z,10.38
2018-04-08T04:37:24.773Z,6.10
2018-04-08T04:39:52.229Z,8.93
2018-04-08T04:42:19.679Z,9.40
2018-04-08T04:44:47.121Z,6.95
2018-04-08T04:47:15.337Z,13.13
2018-04-08T04:49:42.777Z,8.95
2018-04-08T04:52:10.235Z,7.87
2018-04-08T04:54:37.676Z,7.78
2018-04-08T04:57:05.134Z,14.05
2018-04-08T04:59:32.573Z,10.57
2018-04-08T05:02:00.787Z,9.45
2018-04-08T05:04:28.237Z,7.87
2018-04-08T05:06:55.685Z,9.32
2018-04-08T05:09:23.132Z,8.75
2018-04-08T05:11:51.345Z,7.82
2018-04-08T05:14:18.788Z,15.73
2018-04-08T05:16:46.261Z,20.02
2018-04-08T05:19:13.705Z,13.07
2018-04-08T05:21:41.161Z,13.50
2018-04-08T05:24:08.618Z,10.07
2018-04-08T05:26:36.061Z,9.82
2018-04-08T05:29:03.522Z,10.55
2018-04-08T05:31:30.984Z,11.02
2018-04-08T05:33:58.431Z,14.68
2018-04-08T05:36:25.875Z,12.82
2018-04-08T05:38:53.333Z,11.35
2018-04-08T05:41:21.548Z,13.62
2018-04-08T05:43:48.985Z,9.55
2018-04-08T05:46:16.428Z,11.07
2018-04-08T05:48:43.885Z,9.55
2018-04-08T05:51:11.330Z,12.13
2018-04-08T05:53:39.546Z,12.90
2018-04-08T05:56:06.992Z,10.93
2018-04-08T05:58:34.429Z,13.85
2018-04-08T06:01:01.890Z,14.32
2018-04-08T06:03:29.345Z,14.95
2018-04-08T06:05:56.801Z,13.20
2018-04-08T06:08:24.257Z,15.02
2018-04-08T06:10:51.737Z,14.15
2018-04-08T06:13:19.168Z,13.85
2018-04-08T06:15:46.625Z,11.43
2018-04-08T06:18:14.089Z,14.55
2018-04-08T06:20:42.361Z,12.55
2018-04-08T06:23:09.816Z,9.98
2018-04-08T06:25:37.269Z,11.27
2018-04-08T06:28:04.726Z,25.30
2018-04-08T06:30:32.184Z,16.98
2018-04-08T06:32:59.640Z,11.85
2018-04-08T06:35:27.098Z,13.65
2018-04-08T06:37:54.562Z,7.78
2018-04-08T06:40:22.008Z,9.90
2018-04-08T06:42:49.482Z,9.10
2018-04-08T06:45:16.961Z,17.15
2018-04-08T06:47:44.424Z,9.68
2018-04-08T06:50:11.887Z,12.45
2018-04-08T06:52:39.364Z,9.32
2018-04-08T06:55:07.101Z,10.40
2018-04-08T07:00:09.358Z,6.50
2018-04-08T07:02:36.818Z,11.93
2018-04-08T07:05:04.271Z,8.18
2018-04-08T07:07:31.724Z,7.37
2018-04-08T07:09:59.169Z,8.23
2018-04-08T07:12:26.624Z,8.20
2018-04-08T07:14:54.868Z,7.87
2018-04-08T07:17:22.357Z,10.87
2018-04-08T07:19:50.565Z,12.33
2018-04-08T07:22:18.022Z,15.70
2018-04-08T07:24:45.481Z,8.67
2018-04-08T07:27:12.933Z,11.80
2018-04-08T07:29:40.376Z,10.30
2018-04-08T07:32:07.831Z,7.07
2018-04-08T07:34:35.476Z,6.90
2018-04-08T07:37:03.705Z,10.50
2018-04-08T07:39:31.175Z,9.80
2018-04-08T07:41:58.630Z,8.37
2018-04-08T07:44:26.090Z,7.33
2018-04-08T07:46:53.749Z,9.83
2018-04-08T07:49:21.231Z,8.80
2018-04-08T07:51:49.544Z,6.93
2018-04-08T07:54:17.154Z,7.83
2018-04-08T07:56:44.602Z,8.43
2018-04-08T07:59:12.231Z,8.57
2018-04-08T08:01:39.684Z,8.13
2018-04-08T08:04:07.352Z,7.90
2018-04-08T08:06:35.096Z,10.10
2018-04-08T08:09:02.884Z,7.73
2018-04-08T08:11:30.607Z,7.23
2018-04-08T08:13:58.328Z,10.03
2018-04-08T08:16:26.704Z,10.27
2018-04-08T08:18:54.172Z,7.40
2018-04-08T08:21:21.664Z,6.60
2018-04-08T08:23:49.881Z,8.17
2018-04-08T08:26:17.325Z,6.30
2018-04-08T08:28:44.780Z,7.23
2018-04-08T08:31:13.000Z,5.97
2018-04-08T08:33:40.464Z,6.63
2018-04-08T08:36:08.000Z,6.83
2018-04-08T08:38:35.502Z,7.57
2018-04-08T08:41:03.941Z,7.20
2018-04-08T08:43:32.211Z,11.10
2018-04-08T08:45:59.754Z,6.87
2018-04-08T08:48:27.205Z,6.60
2018-04-08T08:50:54.689Z,10.90
2018-04-08T08:53:22.319Z,10.07
2018-04-08T08:55:49.974Z,8.30
2018-04-08T08:58:17.507Z,8.07
2018-04-08T09:00:45.739Z,7.73
2018-04-08T09:03:13.199Z,12.53
2018-04-08T09:05:40.642Z,7.57
2018-04-08T09:08:09.708Z,12.10
2018-04-08T09:10:37.168Z,15.30
2018-04-08T09:13:04.665Z,9.00
2018-04-08T09:15:32.178Z,7.50
2018-04-08T09:18:00.458Z,7.27
2018-04-08T09:23:35.253Z,8.63
2018-04-08T09:26:05.296Z,7.73
2018-04-08T09:28:32.756Z,7.83
2018-04-08T09:31:00.209Z,13.77
2018-04-08T09:33:27.755Z,7.43
2018-04-08T09:35:55.198Z,10.13
2018-04-08T09:38:22.659Z,8.43
2018-04-08T09:40:50.122Z,8.63
2018-04-08T09:43:17.573Z,9.70
2018-04-08T09:45:45.024Z,8.27
2018-04-08T09:48:12.474Z,12.60
2018-04-08T09:50:39.941Z,8.90
2018-04-08T09:53:07.389Z,9.37
2018-04-08T09:55:34.834Z,9.90
2018-04-08T09:58:08.049Z,12.93
2018-04-08T10:00:54.314Z,9.60
2018-04-08T10:03:26.729Z,10.33
2018-04-08T10:05:54.191Z,8.50
2018-04-08T10:08:21.652Z,10.07
2018-04-08T10:10:49.123Z,8.77
2018-04-08T10:13:17.361Z,9.17
2018-04-08T10:15:44.866Z,9.30
2018-04-08T10:18:13.079Z,9.60
2018-04-08T10:20:40.554Z,12.57
2018-04-08T10:23:08.015Z,13.40
2018-04-08T10:25:35.554Z,11.63
2018-04-08T10:28:03.769Z,13.60
2018-04-08T10:30:31.245Z,18.33
2018-04-08T10:32:59.560Z,11.83
2018-04-08T10:35:27.787Z,13.07
2018-04-08T10:37:56.005Z,12.83
2018-04-08T10:40:23.463Z,14.73
2018-04-08T10:42:50.907Z,17.00
2018-04-08T10:45:18.370Z,13.60
2018-04-08T10:47:45.834Z,12.50
2018-04-08T10:50:14.084Z,15.27
2018-04-08T10:52:41.566Z,15.10
2018-04-08T10:55:09.847Z,14.87
2018-04-08T10:57:37.298Z,13.30
2018-04-08T11:00:04.852Z,13.33
2018-04-08T11:02:32.385Z,12.63
2018-04-08T11:05:00.650Z,12.57
2018-04-08T11:07:28.091Z,11.73
2018-04-08T11:09:55.542Z,12.30
2018-04-08T11:12:23.001Z,11.00
2018-04-08T11:14:50.528Z,13.13
2018-04-08T11:17:18.752Z,14.80
2018-04-08T11:19:46.975Z,13.77
2018-04-08T11:22:14.428Z,13.70
2018-04-08T11:24:41.982Z,14.03
2018-04-08T11:27:09.428Z,12.87
2018-04-08T11:29:36.893Z,13.83
2018-04-08T11:32:04.355Z,13.80
2018-04-08T11:34:31.826Z,14.73
2018-04-08T11:36:59.274Z,16.70
2018-04-08T11:39:27.024Z,14.67
2018-04-08T11:41:55.026Z,14.23
2018-04-08T11:44:22.495Z,17.47
2018-04-08T11:46:50.599Z,14.00
2018-04-08T11:49:18.824Z,12.80
2018-04-08T11:51:46.281Z,14.23
2018-04-08T11:54:13.746Z,14.50
2018-04-08T11:56:41.194Z,13.50
2018-04-08T11:59:08.648Z,16.33
2018-04-08T12:01:36.097Z,16.07
2018-04-08T12:04:03.549Z,15.83
2018-04-08T12:06:31.008Z,17.83
2018-04-08T12:08:59.239Z,21.90
2018-04-08T12:11:27.453Z,21.50
2018-04-08T12:13:54.912Z,17.40
2018-04-08T12:16:22.373Z,13.87
2018-04-08T12:18:49.838Z,18.90
2018-04-08T12:21:17.287Z,15.20
2018-04-08T12:23:44.740Z,18.10
2018-04-08T12:26:12.198Z,19.17
2018-04-08T12:28:39.658Z,17.70
2018-04-08T12:31:07.113Z,15.03
2018-04-08T12:33:34.577Z,17.30
2018-04-08T12:36:02.037Z,16.70
2018-04-08T12:38:29.536Z,16.77
2018-04-08T12:40:57.760Z,16.10
2018-04-08T12:43:25.257Z,14.37
2018-04-08T12:45:52.730Z,16.80
2018-04-08T12:48:20.952Z,16.03
2018-04-08T12:50:48.428Z,19.30
2018-04-08T12:53:15.890Z,15.63
2018-04-08T12:55:43.356Z,18.50
2018-04-08T12:58:10.821Z,14.10
2018-04-08T13:00:38.286Z,15.47
2018-04-08T13:03:05.753Z,18.60
2018-04-08T13:05:33.976Z,15.20
2018-04-08T13:08:01.441Z,16.83
2018-04-08T13:10:30.143Z,15.57
2018-04-08T13:12:57.598Z,24.40
2018-04-08T13:15:25.167Z,16.17
2018-04-08T13:17:52.616Z,16.20
2018-04-08T13:20:20.078Z,19.50
2018-04-08T13:22:47.542Z,16.87
2018-04-08T13:25:15.007Z,13.80
2018-04-08T13:27:42.464Z,15.03
2018-04-08T13:30:10.786Z,17.20
2018-04-08T13:32:38.237Z,15.47
2018-04-08T13:35:05.703Z,20.03
2018-04-08T13:37:33.170Z,15.10
2018-04-08T13:40:00.641Z,14.50
2018-04-08T13:42:28.102Z,20.70
2018-04-08T13:44:55.578Z,14.60
2018-04-08T13:47:23.042Z,15.37
2018-04-08T13:49:50.514Z,16.00
2018-04-08T13:52:18.737Z,14.97
2018-04-08T13:54:46.744Z,15.63
2018-04-08T13:57:14.264Z,15.73
2018-04-08T13:59:42.010Z,17.90
2018-04-08T14:02:09.491Z,17.27
2018-04-08T14:04:36.949Z,19.80
2018-04-08T14:07:04.428Z,16.33
2018-04-08T14:09:31.898Z,16.10
2018-04-08T14:12:00.123Z,15.00
2018-04-08T14:14:27.655Z,15.40
2018-04-08T14:16:55.078Z,16.53
2018-04-08T14:19:22.530Z,17.73
2018-04-08T14:21:50.194Z,14.70
2018-04-08T14:24:17.789Z,16.83
2018-04-08T14:26:45.375Z,19.13
2018-04-08T14:29:12.841Z,14.17
2018-04-08T14:31:40.342Z,20.40
2018-04-08T14:34:07.792Z,18.60
2018-04-08T14:36:35.262Z,18.43
2018-04-08T14:39:03.493Z,17.70
2018-04-08T14:41:30.962Z,16.23
2018-04-08T14:43:58.409Z,17.70
2018-04-08T14:46:25.943Z,16.60
2018-04-08T14:48:54.133Z,16.50
2018-04-08T14:51:21.606Z,16.43
2018-04-08T14:53:49.075Z,17.13
2018-04-08T14:56:16.538Z,16.60
2018-04-08T14:58:44.018Z,18.17
2018-04-08T15:01:12.263Z,22.30
2018-04-08T15:03:39.718Z,20.37
2018-04-08T15:06:07.182Z,20.27
2018-04-08T15:08:34.647Z,19.93
2018-04-08T15:11:02.106Z,39.50
2018-04-08T15:13:29.732Z,32.80
2018-04-08T15:15:58.023Z,24.83
2018-04-08T15:18:25.476Z,24.23
2018-04-08T15:20:52.948Z,24.30
2018-04-08T15:23:20.401Z,21.27
2018-04-08T15:25:47.858Z,20.47
2018-04-08T15:28:15.319Z,20.10
2018-04-08T15:30:42.785Z,20.97
2018-04-08T15:33:10.247Z,20.63
2018-04-08T15:35:37.704Z,24.27
2018-04-08T15:38:05.930Z,24.30
2018-04-08T15:40:33.422Z,25.67
2018-04-08T15:43:00.869Z,24.10
2018-04-08T15:45:28.327Z,20.77
2018-04-08T15:47:55.786Z,21.40
2018-04-08T15:50:23.281Z,19.10
2018-04-08T15:52:51.503Z,24.83
2018-04-08T15:55:18.968Z,18.60
2018-04-08T15:57:46.426Z,25.00
2018-04-08T16:00:13.875Z,21.67
2018-04-08T16:02:41.445Z,19.83
2018-04-08T16:05:08.887Z,21.43
2018-04-08T16:07:36.380Z,23.10
2018-04-08T16:10:03.859Z,24.90
2018-04-08T16:12:31.390Z,24.63
2018-04-08T16:14:59.633Z,22.63
2018-04-08T16:17:27.104Z,24.37
2018-04-08T16:19:54.561Z,26.03
2018-04-08T16:22:22.029Z,22.90
2018-04-08T16:24:49.493Z,19.93
2018-04-08T16:27:16.949Z,22.43
2018-04-08T16:29:44.401Z,23.60
2018-04-08T16:32:11.855Z,19.43
2018-04-08T16:34:39.313Z,21.53
2018-04-08T16:37:06.778Z,28.50
2018-04-08T16:39:34.225Z,20.30
2018-04-08T16:42:01.707Z,19.13
2018-04-08T16:44:29.177Z,20.00
2018-04-08T16:46:57.412Z,26.30
2018-04-08T16:49:24.868Z,21.40
2018-04-08T16:51:52.319Z,17.47
2018-04-08T16:54:19.779Z,19.67
2018-04-08T16:56:48.067Z,19.10
2018-04-08T16:59:15.591Z,18.97
2018-04-08T17:01:43.038Z,20.00
2018-04-08T17:04:10.504Z,17.97
2018-04-08T17:06:37.977Z,25.80
2018-04-08T17:09:06.306Z,23.40
2018-04-08T17:11:34.538Z,19.33
2018-04-08T17:14:02.001Z,24.20
2018-04-08T17:16:29.468Z,19.87
2018-04-08T17:18:56.930Z,30.93
2018-04-08T17:21:24.398Z,21.30
2018-04-08T17:23:51.859Z,24.63
2018-04-08T17:26:19.318Z,23.43
2018-04-08T17:28:47.551Z,15.37
2018-04-08T17:31:15.018Z,22.97
2018-04-08T17:33:42.473Z,24.10
2018-04-08T17:36:09.932Z,20.47
2018-04-08T17:38:37.390Z,21.47
2018-04-08T17:41:04.845Z,20.77
2018-04-08T17:43:32.317Z,20.53
2018-04-08T17:45:59.773Z,16.90
2018-04-08T17:48:27.236Z,22.03
2018-04-08T17:50:54.696Z,20.20
2018-04-08T17:53:22.155Z,34.43
2018-04-08T17:55:49.614Z,22.50
2018-04-08T17:58:17.852Z,28.87
2018-04-08T18:00:46.245Z,18.77
2018-04-08T18:03:13.832Z,25.17
2018-04-08T18:05:42.068Z,19.57
2018-04-08T18:08:09.520Z,17.00
2018-04-08T18:10:36.999Z,33.67
2018-04-08T18:13:04.613Z,24.63
2018-04-08T18:15:32.111Z,19.20
2018-04-08T18:17:59.600Z,18.73
2018-04-08T18:20:27.824Z,20.77
2018-04-08T18:22:55.278Z,18.03
2018-04-08T18:25:22.736Z,25.03
2018-04-08T18:27:50.232Z,23.40
2018-04-08T18:30:17.701Z,25.20
2018-04-08T18:32:45.961Z,19.30
2018-04-08T18:35:14.210Z,22.73
2018-04-08T18:37:41.741Z,23.57
2018-04-08T18:40:09.218Z,25.90
2018-04-08T18:42:42.355Z,23.33
2018-04-08T18:45:09.822Z,22.00
2018-04-08T18:47:38.053Z,20.57
2018-04-08T18:50:05.526Z,26.73
2018-04-08T18:52:33.002Z,18.13
2018-04-08T18:55:00.471Z,21.70
2018-04-08T18:57:28.752Z,23.23
2018-04-08T18:59:56.259Z,20.63
2018-04-08T19:02:34.310Z,21.57
2018-04-08T19:05:02.566Z,23.90
2018-04-08T19:07:30.048Z,20.23
2018-04-08T19:09:58.405Z,23.03
2018-04-08T19:12:26.662Z,18.00
2018-04-08T19:14:59.697Z,26.10
2018-04-08T19:17:32.736Z,17.50
2018-04-08T19:20:00.245Z,18.80
2018-04-08T19:22:27.727Z,20.77
2018-04-08T19:24:55.184Z,18.37
2018-04-08T19:27:28.372Z,20.33
2018-04-08T19:29:55.836Z,23.30
2018-04-08T19:32:23.341Z,22.03
2018-04-08T19:34:50.817Z,24.23
2018-04-08T19:37:18.313Z,20.50
2018-04-08T19:39:45.873Z,19.37
2018-04-08T19:42:13.350Z,27.83
2018-04-08T19:44:40.855Z,19.43
2018-04-08T19:47:08.408Z,17.47
2018-04-08T19:49:43.064Z,22.77
2018-04-08T19:52:10.664Z,21.30
2018-04-08T19:54:38.243Z,23.30
2018-04-08T19:57:05.739Z,22.47
2018-04-08T19:59:33.202Z,18.87
2018-04-08T20:02:01.063Z,20.23
2018-04-08T20:04:28.809Z,25.73
2018-04-08T20:06:57.193Z,16.97
2018-04-08T20:09:25.047Z,16.60
2018-04-08T20:11:52.499Z,18.40
2018-04-08T20:14:20.012Z,18.37
2018-04-08T20:16:47.510Z,20.77
2018-04-08T20:19:15.040Z,16.13
2018-04-08T20:21:42.508Z,23.33
2018-04-08T20:24:10.017Z,18.97
2018-04-08T20:26:38.412Z,21.83
2018-04-08T20:29:05.897Z,22.70
2018-04-08T20:31:33.370Z,25.23
2018-04-08T20:34:00.874Z,19.90
2018-04-08T20:36:28.380Z,21.73
2018-04-08T20:38:56.655Z,26.10
2018-04-08T20:41:24.163Z,18.20
2018-04-08T20:43:51.674Z,18.63
2018-04-08T20:46:19.979Z,16.50
2018-04-08T20:48:47.469Z,30.57
2018-04-08T20:51:14.955Z,20.20
2018-04-08T20:53:42.585Z,19.83
2018-04-08T20:56:10.185Z,18.43
2018-04-08T20:58:37.701Z,14.90
2018-04-08T21:01:05.341Z,18.20
2018-04-08T21:03:33.029Z,28.70
2018-04-08T21:06:00.648Z,19.60
2018-04-08T21:08:28.259Z,28.53
2018-04-08T21:10:55.914Z,19.60
2018-04-08T21:13:23.492Z,16.47
2018-04-08T21:15:51.001Z,24.43
2018-04-08T21:18:18.519Z,21.77
2018-04-08T21:20:46.202Z,21.93
2018-04-08T21:23:14.499Z,27.10
2018-04-08T21:25:41.975Z,16.27
2018-04-08T21:28:09.529Z,21.23
2018-04-08T21:30:37.035Z,19.13
2018-04-08T21:33:04.542Z,19.03
2018-04-08T21:35:32.793Z,20.40
2018-04-08T21:38:00.306Z,20.80
2018-04-08T21:40:27.813Z,23.47
2018-04-08T21:42:55.303Z,20.40
2018-04-08T21:45:22.820Z,19.87
2018-04-08T21:47:50.316Z,26.87
2018-04-08T21:50:17.801Z,24.87
2018-04-08T21:52:45.386Z,27.57
2018-04-08T21:55:13.642Z,14.93
2018-04-08T21:57:41.107Z,24.13
2018-04-08T22:00:08.586Z,21.20
2018-04-08T22:02:36.850Z,18.43
2018-04-08T22:05:05.140Z,16.60
2018-04-08T22:07:33.401Z,19.70
2018-04-08T22:10:00.906Z,17.03
2018-04-08T22:12:28.379Z,18.93
2018-04-08T22:14:55.960Z,16.20
2018-04-08T22:17:23.452Z,18.60
2018-04-08T22:19:50.944Z,17.20
2018-04-08T22:22:18.435Z,18.13
2018-04-08T22:24:45.953Z,15.20
2018-04-08T22:27:13.451Z,20.50
2018-04-08T22:29:40.953Z,19.00
2018-04-08T22:32:08.464Z,16.07
2018-04-08T22:34:35.972Z,16.30
2018-04-08T22:37:03.665Z,17.00
2018-04-08T22:39:31.428Z,19.53
2018-04-08T22:41:58.938Z,18.13
2018-04-08T22:44:27.201Z,17.87
2018-04-08T22:46:55.452Z,19.30
2018-04-08T22:49:22.957Z,16.07
2018-04-08T22:51:50.453Z,16.80
2018-04-08T22:54:17.931Z,15.63
2018-04-08T22:56:45.617Z,17.40
2018-04-08T22:59:13.917Z,19.33
2018-04-08T23:01:41.424Z,24.50
2018-04-08T23:04:08.922Z,15.53
2018-04-08T23:06:37.187Z,15.63
2018-04-08T23:09:06.410Z,15.63
2018-04-08T23:11:33.894Z,16.20
2018-04-08T23:14:01.372Z,13.60
2018-04-08T23:16:28.862Z,14.17
2018-04-08T23:18:57.133Z,11.37
2018-04-08T23:21:25.386Z,14.00
2018-04-08T23:23:52.870Z,12.67
2018-04-08T23:26:21.119Z,14.97
2018-04-08T23:28:48.593Z,11.47
2018-04-08T23:31:16.055Z,11.23
2018-04-08T23:33:44.311Z,14.83
2018-04-08T23:36:11.810Z,12.03
2018-04-08T23:38:39.300Z,16.03
2018-04-08T23:41:06.775Z,10.83
2018-04-08T23:43:34.278Z,10.80
2018-04-08T23:46:01.756Z,11.90
2018-04-08T23:48:29.245Z,14.43
2018-04-08T23:50:56.750Z,12.67
2018-04-08T23:53:25.025Z,10.50
2018-04-08T23:55:52.526Z,12.00
2018-04-08T23:58:20.004Z,12.10
